createdAt,value
2016-12-21T00:00:39.063Z,22
2016-12-21T00:01:38.555Z,22
2016-12-21T00:02:38.560Z,22.2
2016-12-21T00:03:38.567Z,22.1
2016-12-21T00:04:38.575Z,22
2016-12-21T00:05:38.584Z,22.09
2016-12-21T00:06:38.901Z,21.99
2016-12-21T00:07:38.908Z,21.91
2016-12-21T00:08:38.965Z,22
2016-12-21T00:09:38.922Z,21.91
2016-12-21T00:10:38.616Z,22.2
2016-12-21T00:11:39.141Z,22.19
2016-12-21T00:12:38.944Z,22.09
2016-12-21T00:13:38.952Z,21.99
2016-12-21T00:14:39.008Z,22
2016-12-21T00:15:38.654Z,22.09
2016-12-21T00:16:38.709Z,22
2016-12-21T00:17:38.980Z,22.39
2016-12-21T00:18:38.674Z,22.3
2016-12-21T00:19:39.346Z,22.2
2016-12-21T00:20:39.864Z,22
2016-12-21T00:21:38.697Z,22.3
2016-12-21T00:22:39.018Z,21.99
2016-12-21T00:23:39.022Z,21.99
2016-12-21T00:24:38.716Z,21.99
2016-12-21T00:25:38.725Z,22.09
2016-12-21T00:26:38.731Z,21.99
2016-12-21T00:27:38.787Z,22.48
2016-12-21T00:28:39.059Z,22.19
2016-12-21T00:29:39.116Z,22.1
2016-12-21T00:30:38.758Z,22.1
2016-12-21T00:31:39.078Z,22.19
2016-12-21T00:32:38.776Z,22
2016-12-21T00:33:38.781Z,21.99
2016-12-21T00:34:38.842Z,22.09
2016-12-21T00:35:40.230Z,22.09
2016-12-21T00:36:38.804Z,21.99
2016-12-21T00:37:38.817Z,22.19
2016-12-21T00:38:39.240Z,22.09
2016-12-21T00:39:38.857Z,21.99
2016-12-21T00:40:38.832Z,22.19
2016-12-21T00:41:38.889Z,21.99
2016-12-21T00:42:38.897Z,22.28
2016-12-21T00:43:39.266Z,22.19
2016-12-21T00:44:39.108Z,22.19
2016-12-21T00:45:38.919Z,22
2016-12-21T00:46:38.876Z,22.19
2016-12-21T00:47:38.883Z,22.19
2016-12-21T00:48:39.251Z,22.19
2016-12-21T00:49:39.206Z,22.19
2016-12-21T00:50:39.265Z,22.1
2016-12-21T00:51:38.959Z,22.1
2016-12-21T00:52:39.279Z,22.09
2016-12-21T00:53:39.236Z,22.2
2016-12-21T00:54:39.296Z,22.09
2016-12-21T00:55:39.303Z,22.19
2016-12-21T00:56:38.996Z,21.99
2016-12-21T00:57:40.404Z,22.1
2016-12-21T00:58:39.354Z,21.99
2016-12-21T00:59:38.968Z,22.09
2016-12-21T01:00:38.973Z,21.7
2016-12-21T01:01:39.293Z,21.89
2016-12-21T01:02:39.302Z,22.09
2016-12-21T01:03:39.306Z,21.89
2016-12-21T01:04:39.526Z,22.09
2016-12-21T01:05:39.007Z,21.91
2016-12-21T01:06:39.329Z,22.09
2016-12-21T01:07:39.026Z,22.09
2016-12-21T01:08:40.344Z,22
2016-12-21T01:09:39.037Z,21.89
2016-12-21T01:10:39.043Z,21.99
2016-12-21T01:11:39.050Z,21.81
2016-12-21T01:12:39.057Z,21.89
2016-12-21T01:13:39.066Z,21.99
2016-12-21T01:14:39.433Z,21.81
2016-12-21T01:15:39.129Z,21.99
2016-12-21T01:16:39.445Z,22.09
2016-12-21T01:17:39.405Z,22.09
2016-12-21T01:18:39.099Z,22.09
2016-12-21T01:19:40.236Z,22.09
2016-12-21T01:20:39.162Z,21.8
2016-12-21T01:21:39.436Z,21.99
2016-12-21T01:22:39.126Z,22.1
2016-12-21T01:23:39.448Z,21.89
2016-12-21T01:24:39.455Z,21.89
2016-12-21T01:25:39.509Z,22.09
2016-12-21T01:26:39.467Z,21.8
2016-12-21T01:27:39.162Z,21.99
2016-12-21T01:28:39.483Z,22.09
2016-12-21T01:29:39.176Z,22.09
2016-12-21T01:30:40.182Z,21.8
2016-12-21T01:31:39.501Z,22.09
2016-12-21T01:32:39.509Z,22.19
2016-12-21T01:33:39.516Z,21.99
2016-12-21T01:34:39.576Z,22.09
2016-12-21T01:35:39.218Z,22.09
2016-12-21T01:36:39.225Z,22.09
2016-12-21T01:37:39.610Z,22.09
2016-12-21T01:38:39.237Z,21.99
2016-12-21T01:39:39.557Z,21.8
2016-12-21T01:40:39.582Z,21.89
2016-12-21T01:41:40.023Z,21.8
2016-12-21T01:42:39.266Z,21.8
2016-12-21T01:43:39.888Z,21.89
2016-12-21T01:44:39.592Z,21.8
2016-12-21T01:45:39.599Z,21.99
2016-12-21T01:46:39.604Z,22.09
2016-12-21T01:47:39.353Z,22.19
2016-12-21T01:48:39.357Z,22.28
2016-12-21T01:49:39.628Z,21.89
2016-12-21T01:50:39.324Z,21.7
2016-12-21T01:51:39.328Z,21.89
2016-12-21T01:52:40.037Z,21.89
2016-12-21T01:53:39.346Z,21.8
2016-12-21T01:54:39.663Z,21.8
2016-12-21T01:55:39.667Z,21.99
2016-12-21T01:56:39.364Z,21.99
2016-12-21T01:57:39.372Z,21.7
2016-12-21T01:58:39.378Z,21.89
2016-12-21T01:59:39.696Z,21.8
2016-12-21T02:00:39.393Z,21.99
2016-12-21T02:01:39.710Z,21.8
2016-12-21T02:02:39.717Z,21.8
2016-12-21T02:03:39.725Z,21.7
2016-12-21T02:04:39.784Z,22.09
2016-12-21T02:05:40.529Z,21.8
2016-12-21T02:06:39.799Z,21.99
2016-12-21T02:07:39.803Z,21.8
2016-12-21T02:08:39.810Z,21.99
2016-12-21T02:09:39.765Z,21.8
2016-12-21T02:10:39.825Z,21.99
2016-12-21T02:11:39.470Z,21.8
2016-12-21T02:12:39.791Z,22.09
2016-12-21T02:13:39.795Z,21.8
2016-12-21T02:14:39.850Z,21.8
2016-12-21T02:15:39.910Z,22.19
2016-12-21T02:16:40.716Z,22.28
2016-12-21T02:17:39.507Z,22.38
2016-12-21T02:18:39.565Z,21.89
2016-12-21T02:19:39.885Z,21.99
2016-12-21T02:20:39.894Z,21.7
2016-12-21T02:21:39.535Z,21.8
2016-12-21T02:22:39.907Z,21.89
2016-12-21T02:23:39.913Z,22.48
2016-12-21T02:24:39.921Z,22.09
2016-12-21T02:25:39.927Z,22.09
2016-12-21T02:26:39.571Z,21.8
2016-12-21T02:27:40.541Z,21.99
2016-12-21T02:28:39.898Z,21.99
2016-12-21T02:29:39.902Z,21.99
2016-12-21T02:30:39.967Z,22.48
2016-12-21T02:31:39.604Z,21.99
2016-12-21T02:32:39.920Z,21.8
2016-12-21T02:33:39.936Z,21.89
2016-12-21T02:34:39.989Z,21.99
2016-12-21T02:35:39.945Z,22.19
2016-12-21T02:36:39.689Z,22.09
2016-12-21T02:37:39.649Z,21.99
2016-12-21T02:38:40.653Z,21.89
2016-12-21T02:39:39.711Z,21.8
2016-12-21T02:40:39.982Z,21.89
2016-12-21T02:41:40.040Z,21.89
2016-12-21T02:42:39.683Z,21.89
2016-12-21T02:43:39.737Z,21.7
2016-12-21T02:44:39.747Z,21.8
2016-12-21T02:45:39.703Z,21.7
2016-12-21T02:46:40.027Z,22.09
2016-12-21T02:47:39.715Z,21.89
2016-12-21T02:48:39.724Z,21.89
2016-12-21T02:49:40.228Z,21.89
2016-12-21T02:50:40.100Z,21.89
2016-12-21T02:51:40.155Z,21.89
2016-12-21T02:52:39.750Z,21.8
2016-12-21T02:53:40.669Z,22.09
2016-12-21T02:54:40.076Z,21.99
2016-12-21T02:55:40.134Z,22.09
2016-12-21T02:56:39.777Z,22.19
2016-12-21T02:57:39.782Z,21.89
2016-12-21T02:58:40.107Z,21.8
2016-12-21T02:59:39.846Z,22.09
2016-12-21T03:00:40.170Z,21.99
2016-12-21T03:01:40.228Z,21.89
2016-12-21T03:02:40.132Z,21.99
2016-12-21T03:03:39.826Z,22.09
2016-12-21T03:04:40.598Z,21.99
2016-12-21T03:05:40.150Z,21.7
2016-12-21T03:06:40.159Z,21.7
2016-12-21T03:07:40.167Z,21.8
2016-12-21T03:08:39.867Z,21.8
2016-12-21T03:09:40.229Z,21.7
2016-12-21T03:10:40.486Z,21.61
2016-12-21T03:11:39.936Z,21.7
2016-12-21T03:12:39.886Z,21.8
2016-12-21T03:13:41.359Z,21.89
2016-12-21T03:14:40.213Z,21.8
2016-12-21T03:15:40.220Z,21.51
2016-12-21T03:16:39.965Z,21.8
2016-12-21T03:17:39.921Z,21.51
2016-12-21T03:18:39.928Z,21.51
2016-12-21T03:19:39.938Z,21.51
2016-12-21T03:20:39.940Z,21.7
2016-12-21T03:21:39.953Z,21.8
2016-12-21T03:22:40.366Z,21.7
2016-12-21T03:23:40.364Z,21.61
2016-12-21T03:24:40.020Z,21.99
2016-12-21T03:25:40.080Z,22.09
2016-12-21T03:26:40.082Z,21.8
2016-12-21T03:27:39.992Z,21.8
2016-12-21T03:28:40.359Z,21.61
2016-12-21T03:29:40.316Z,21.61
2016-12-21T03:30:40.321Z,21.7
2016-12-21T03:31:40.330Z,21.89
2016-12-21T03:32:40.020Z,21.8
2016-12-21T03:33:40.341Z,21.61
2016-12-21T03:34:40.397Z,21.7
2016-12-21T03:35:41.358Z,21.8
2016-12-21T03:36:40.050Z,21.7
2016-12-21T03:37:40.245Z,21.7
2016-12-21T03:38:40.378Z,21.8
2016-12-21T03:39:40.121Z,21.7
2016-12-21T03:40:40.129Z,21.7
2016-12-21T03:41:40.448Z,21.7
2016-12-21T03:42:40.092Z,21.8
2016-12-21T03:43:40.410Z,21.7
2016-12-21T03:44:40.103Z,21.61
2016-12-21T03:45:40.263Z,21.61
2016-12-21T03:46:40.481Z,21.7
2016-12-21T03:47:40.134Z,21.7
2016-12-21T03:48:40.131Z,21.7
2016-12-21T03:49:40.450Z,21.51
2016-12-21T03:50:41.561Z,21.61
2016-12-21T03:51:40.251Z,21.51
2016-12-21T03:52:40.528Z,21.7
2016-12-21T03:53:40.483Z,21.61
2016-12-21T03:54:40.172Z,21.61
2016-12-21T03:55:40.179Z,21.51
2016-12-21T03:56:40.236Z,21.61
2016-12-21T03:57:40.243Z,21.61
2016-12-21T03:58:40.514Z,21.61
2016-12-21T03:59:40.658Z,21.51
2016-12-21T04:00:40.581Z,21.51
2016-12-21T04:01:40.271Z,21.31
2016-12-21T04:02:40.542Z,21.51
2016-12-21T04:03:40.545Z,21.61
2016-12-21T04:04:40.554Z,21.51
2016-12-21T04:05:40.298Z,21.51
2016-12-21T04:06:40.569Z,21.51
2016-12-21T04:07:40.576Z,21.8
2016-12-21T04:08:40.272Z,21.69
2016-12-21T04:09:40.688Z,21.51
2016-12-21T04:10:40.595Z,21.69
2016-12-21T04:11:40.337Z,21.8
2016-12-21T04:12:41.398Z,21.59
2016-12-21T04:13:40.617Z,21.5
2016-12-21T04:14:40.674Z,21.7
2016-12-21T04:15:40.634Z,21.7
2016-12-21T04:16:40.327Z,21.4
2016-12-21T04:17:40.331Z,21.7
2016-12-21T04:18:40.702Z,21.7
2016-12-21T04:19:40.346Z,21.41
2016-12-21T04:20:40.665Z,21.41
2016-12-21T04:21:40.417Z,21.41
2016-12-21T04:22:40.728Z,21.5
2016-12-21T04:23:41.491Z,21.8
2016-12-21T04:24:40.692Z,21.5
2016-12-21T04:25:40.699Z,21.89
2016-12-21T04:26:40.716Z,21.61
2016-12-21T04:27:40.714Z,21.61
2016-12-21T04:28:40.407Z,21.61
2016-12-21T04:29:40.414Z,21.51
2016-12-21T04:30:40.783Z,21.5
2016-12-21T04:31:40.793Z,21.7
2016-12-21T04:32:40.751Z,21.5
2016-12-21T04:33:40.754Z,21.8
2016-12-21T04:34:41.780Z,21.51
2016-12-21T04:35:40.770Z,21.69
2016-12-21T04:36:40.827Z,21.51
2016-12-21T04:37:40.784Z,21.8
2016-12-21T04:38:40.528Z,21.4
2016-12-21T04:39:40.796Z,21.41
2016-12-21T04:40:40.804Z,21.69
2016-12-21T04:41:40.861Z,21.7
2016-12-21T04:42:40.554Z,21.59
2016-12-21T04:43:40.878Z,21.59
2016-12-21T04:44:40.886Z,21.61
2016-12-21T04:45:41.587Z,21.5
2016-12-21T04:46:40.533Z,21.5
2016-12-21T04:47:40.539Z,21.4
2016-12-21T04:48:40.865Z,21.79
2016-12-21T04:49:40.603Z,21.5
2016-12-21T04:50:40.609Z,21.69
2016-12-21T04:51:40.881Z,21.59
2016-12-21T04:52:40.939Z,21.5
2016-12-21T04:53:40.893Z,21.69
2016-12-21T04:54:40.900Z,21.61
2016-12-21T04:55:40.905Z,21.59
2016-12-21T04:56:41.203Z,21.5
2016-12-21T04:57:40.604Z,21.59
2016-12-21T04:58:40.929Z,21.79
2016-12-21T04:59:40.934Z,21.59
2016-12-21T05:00:41.040Z,21.8
2016-12-21T05:01:40.997Z,21.79
2016-12-21T05:02:40.640Z,21.3
2016-12-21T05:03:40.963Z,21.41
2016-12-21T05:04:40.654Z,21.7
2016-12-21T05:05:40.661Z,21.59
2016-12-21T05:06:40.980Z,21.51
2016-12-21T05:07:41.428Z,21.4
2016-12-21T05:08:40.995Z,21.3
2016-12-21T05:09:40.691Z,21.61
2016-12-21T05:10:41.010Z,21.51
2016-12-21T05:11:40.756Z,21.4
2016-12-21T05:12:41.023Z,21.3
2016-12-21T05:13:40.768Z,21.41
2016-12-21T05:14:40.724Z,21.31
2016-12-21T05:15:41.094Z,21.31
2016-12-21T05:16:41.050Z,21.4
2016-12-21T05:17:41.057Z,21.4
2016-12-21T05:18:40.903Z,21.59
2016-12-21T05:19:41.121Z,21.59
2016-12-21T05:20:42.100Z,21.4
2016-12-21T05:21:41.083Z,21.3
2016-12-21T05:22:41.290Z,21.5
2016-12-21T05:23:41.096Z,21.2
2016-12-21T05:24:41.105Z,21.5
2016-12-21T05:25:40.847Z,21.69
2016-12-21T05:26:40.806Z,21.41
2016-12-21T05:27:40.861Z,21.31
2016-12-21T05:28:41.181Z,21.31
2016-12-21T05:29:41.137Z,21.3
2016-12-21T05:30:40.907Z,21.41
2016-12-21T05:31:42.266Z,21.31
2016-12-21T05:32:41.158Z,21.22
2016-12-21T05:33:41.167Z,21.5
2016-12-21T05:34:41.224Z,21.31
2016-12-21T05:35:41.184Z,21.69
2016-12-21T05:36:41.239Z,21.4
2016-12-21T05:37:40.931Z,21.41
2016-12-21T05:38:41.199Z,21.11
2016-12-21T05:39:40.947Z,21.7
2016-12-21T05:40:41.266Z,21.41
2016-12-21T05:41:41.220Z,21.4
2016-12-21T05:42:41.917Z,21.4
2016-12-21T05:43:40.971Z,21.22
2016-12-21T05:44:41.242Z,21.59
2016-12-21T05:45:40.985Z,21.11
2016-12-21T05:46:41.257Z,21.3
2016-12-21T05:47:41.364Z,21.4
2016-12-21T05:48:40.955Z,21.5
2016-12-21T05:49:41.326Z,21.22
2016-12-21T05:50:41.282Z,21.12
2016-12-21T05:51:41.029Z,21.11
2016-12-21T05:52:41.299Z,21.2
2016-12-21T05:53:42.095Z,21.31
2016-12-21T05:54:41.000Z,20.93
2016-12-21T05:55:41.317Z,21.2
2016-12-21T05:56:41.009Z,20.82
2016-12-21T05:57:41.069Z,21.01
2016-12-21T05:58:41.029Z,21.01
2016-12-21T05:59:41.036Z,21.2
2016-12-21T06:00:41.351Z,20.82
2016-12-21T06:01:41.046Z,20.72
2016-12-21T06:02:41.368Z,20.83
2016-12-21T06:03:41.107Z,20.92
2016-12-21T06:04:41.881Z,20.92
2016-12-21T06:05:41.434Z,20.83
2016-12-21T06:06:41.442Z,20.83
2016-12-21T06:07:41.084Z,21.11
2016-12-21T06:08:42.156Z,21.11
2016-12-21T06:09:41.101Z,21.01
2016-12-21T06:10:41.419Z,21.01
2016-12-21T06:11:41.118Z,21.01
2016-12-21T06:12:41.484Z,20.92
2016-12-21T06:13:41.441Z,20.82
2016-12-21T06:14:41.448Z,20.72
2016-12-21T06:15:41.456Z,20.82
2016-12-21T06:16:41.198Z,20.93
2016-12-21T06:17:41.470Z,21.11
2016-12-21T06:18:41.522Z,20.92
2016-12-21T06:19:41.882Z,21.11
2016-12-21T06:20:41.486Z,21.01
2016-12-21T06:21:41.491Z,21.11
2016-12-21T06:22:41.188Z,21.11
2016-12-21T06:23:41.553Z,21.01
2016-12-21T06:24:41.562Z,20.92
2016-12-21T06:25:41.570Z,21.01
2016-12-21T06:26:41.264Z,20.82
2016-12-21T06:27:41.532Z,21.11
2016-12-21T06:28:42.514Z,20.92
2016-12-21T06:29:41.234Z,21.01
2016-12-21T06:30:41.802Z,21.01
2016-12-21T06:31:41.296Z,21.11
2016-12-21T06:32:41.251Z,20.92
2016-12-21T06:33:41.314Z,20.92
2016-12-21T06:34:41.579Z,20.92
2016-12-21T06:35:41.639Z,20.82
2016-12-21T06:36:41.592Z,21.01
2016-12-21T06:37:41.627Z,20.72
2016-12-21T06:38:41.293Z,20.92
2016-12-21T06:39:41.665Z,21.01
2016-12-21T06:40:41.359Z,20.92
2016-12-21T06:41:41.614Z,20.92
2016-12-21T06:42:41.634Z,20.92
2016-12-21T06:43:41.327Z,20.92
2016-12-21T06:44:41.647Z,21.11
2016-12-21T06:45:41.654Z,20.92
2016-12-21T06:46:41.661Z,21.11
2016-12-21T06:47:41.353Z,21.01
2016-12-21T06:48:41.673Z,21.01
2016-12-21T06:49:41.679Z,21.01
2016-12-21T06:50:42.629Z,21.01
2016-12-21T06:51:41.696Z,21.11
2016-12-21T06:52:41.987Z,21.01
2016-12-21T06:53:41.758Z,21.01
2016-12-21T06:54:41.714Z,20.82
2016-12-21T06:55:41.722Z,20.82
2016-12-21T06:56:41.516Z,20.92
2016-12-21T06:57:41.734Z,21.01
2016-12-21T06:58:41.741Z,20.82
2016-12-21T06:59:41.797Z,21.11
2016-12-21T07:00:41.755Z,21.11
2016-12-21T07:01:41.448Z,21.01
2016-12-21T07:02:41.816Z,21.11
2016-12-21T07:03:41.825Z,20.92
2016-12-21T07:04:41.781Z,21.11
2016-12-21T07:05:42.593Z,20.92
2016-12-21T07:06:41.532Z,20.92
2016-12-21T07:07:42.102Z,21.2
2016-12-21T07:08:41.496Z,20.82
2016-12-21T07:09:41.816Z,21.01
2016-12-21T07:10:41.509Z,21.11
2016-12-21T07:11:41.830Z,21.01
2016-12-21T07:12:41.839Z,20.92
2016-12-21T07:13:41.841Z,21.01
2016-12-21T07:14:41.590Z,21.12
2016-12-21T07:15:41.545Z,20.82
2016-12-21T07:16:42.951Z,21.01
2016-12-21T07:17:41.556Z,21.01
2016-12-21T07:18:41.952Z,21.01
2016-12-21T07:19:41.884Z,21.01
2016-12-21T07:20:41.892Z,21.01
2016-12-21T07:21:41.895Z,20.92
2016-12-21T07:22:41.903Z,20.82
2016-12-21T07:23:41.598Z,20.82
2016-12-21T07:24:41.917Z,21.01
2016-12-21T07:25:41.611Z,21.01
2016-12-21T07:26:41.961Z,21.01
2016-12-21T07:27:42.225Z,20.82
2016-12-21T07:28:41.946Z,20.54
2016-12-21T07:29:41.951Z,20.73
2016-12-21T07:30:41.644Z,20.44
2016-12-21T07:31:41.965Z,20.25
2016-12-21T07:32:41.970Z,20.45
2016-12-21T07:33:41.665Z,20.06
2016-12-21T07:34:41.983Z,19.68
2016-12-21T07:35:42.041Z,20.36
2016-12-21T07:36:43.016Z,19.59
2016-12-21T07:37:42.004Z,19.78
2016-12-21T07:38:42.264Z,19.11
2016-12-21T07:39:42.018Z,19.4
2016-12-21T07:40:42.025Z,19.11
2016-12-21T07:41:42.083Z,18.73
2016-12-21T07:42:42.088Z,18.83
2016-12-21T07:43:42.097Z,18.83
2016-12-21T07:44:42.052Z,18.93
2016-12-21T07:45:42.110Z,18.93
2016-12-21T07:46:41.753Z,18.64
2016-12-21T07:47:41.762Z,18.15
2016-12-21T07:48:42.080Z,18.45
2016-12-21T07:49:42.287Z,18.16
2016-12-21T07:50:41.782Z,18.26
2016-12-21T07:51:41.838Z,18.26
2016-12-21T07:52:41.846Z,18.26
2016-12-21T07:53:42.114Z,18.16
2016-12-21T07:54:42.123Z,18.16
2016-12-21T07:55:41.820Z,17.77
2016-12-21T07:56:42.190Z,18.17
2016-12-21T07:57:41.829Z,17.88
2016-12-21T07:58:42.151Z,18.27
2016-12-21T07:59:41.894Z,18.07
2016-12-21T08:00:42.400Z,18.17
2016-12-21T08:01:42.172Z,18.07
2016-12-21T08:02:41.916Z,18.17
2016-12-21T08:03:42.184Z,17.97
2016-12-21T08:04:42.242Z,18.17
2016-12-21T08:05:41.888Z,17.88
2016-12-21T08:06:42.206Z,17.97
2016-12-21T08:07:42.262Z,17.89
2016-12-21T08:08:42.221Z,17.89
2016-12-21T08:09:41.916Z,17.79
2016-12-21T08:10:41.925Z,17.97
2016-12-21T08:11:42.292Z,17.89
2016-12-21T08:12:41.941Z,18.07
2016-12-21T08:13:41.947Z,18.07
2016-12-21T08:14:42.316Z,17.97
2016-12-21T08:15:41.961Z,18.07
2016-12-21T08:16:41.966Z,18.27
2016-12-21T08:17:41.974Z,17.97
2016-12-21T08:18:42.298Z,18.07
2016-12-21T08:19:41.986Z,18.07
2016-12-21T08:20:42.306Z,18.17
2016-12-21T08:21:42.315Z,18.16
2016-12-21T08:22:42.358Z,17.87
2016-12-21T08:23:42.018Z,17.97
2016-12-21T08:24:42.387Z,17.97
2016-12-21T08:25:42.342Z,18.27
2016-12-21T08:26:42.398Z,18.16
2016-12-21T08:27:42.362Z,18.45
2016-12-21T08:28:42.414Z,18.16
2016-12-21T08:29:42.109Z,18.16
2016-12-21T08:30:42.168Z,18.26
2016-12-21T08:31:42.083Z,18.07
2016-12-21T08:32:42.443Z,18.45
2016-12-21T08:33:42.089Z,18.26
2016-12-21T08:34:42.408Z,18.26
2016-12-21T08:35:43.578Z,18.35
2016-12-21T08:36:42.109Z,18.07
2016-12-21T08:37:42.480Z,18.16
2016-12-21T08:38:42.123Z,18.16
2016-12-21T08:39:42.442Z,18.07
2016-12-21T08:40:42.447Z,18.26
2016-12-21T08:41:42.147Z,18.26
2016-12-21T08:42:42.513Z,18.26
2016-12-21T08:43:42.475Z,18.07
2016-12-21T08:44:42.476Z,18.35
2016-12-21T08:45:42.486Z,18.07
2016-12-21T08:46:42.229Z,18.17
2016-12-21T08:47:42.190Z,18.16
2016-12-21T08:48:42.608Z,18.17
2016-12-21T08:49:42.512Z,18.26
2016-12-21T08:50:42.207Z,17.97
2016-12-21T08:51:42.536Z,18.16
2016-12-21T08:52:42.534Z,17.97
2016-12-21T08:53:42.540Z,18.16
2016-12-21T08:54:42.552Z,18.07
2016-12-21T08:55:42.292Z,18.07
2016-12-21T08:56:42.253Z,18.17
2016-12-21T08:57:43.569Z,18.27
2016-12-21T08:58:42.264Z,18.07
2016-12-21T08:59:42.635Z,18.27
2016-12-21T09:00:42.280Z,17.97
2016-12-21T09:01:42.602Z,18.17
2016-12-21T09:02:42.295Z,18.07
2016-12-21T09:03:42.350Z,17.97
2016-12-21T09:04:42.621Z,17.88
2016-12-21T09:05:42.631Z,18.17
2016-12-21T09:06:42.324Z,17.97
2016-12-21T09:07:42.694Z,17.97
2016-12-21T09:08:42.337Z,17.97
2016-12-21T09:09:42.393Z,18.17
2016-12-21T09:10:42.452Z,18.17
2016-12-21T09:11:42.360Z,17.97
2016-12-21T09:12:42.683Z,17.97
2016-12-21T09:13:42.374Z,18.17
2016-12-21T09:14:42.694Z,18.07
2016-12-21T09:15:42.388Z,17.97
2016-12-21T09:16:42.397Z,18.17
2016-12-21T09:17:42.718Z,17.88
2016-12-21T09:18:42.461Z,17.88
2016-12-21T09:19:43.281Z,17.97
2016-12-21T09:20:42.739Z,17.88
2016-12-21T09:21:42.795Z,17.88
2016-12-21T09:22:42.830Z,17.97
2016-12-21T09:23:42.449Z,18.27
2016-12-21T09:24:42.766Z,18.18
2016-12-21T09:25:42.511Z,17.98
2016-12-21T09:26:42.784Z,17.98
2016-12-21T09:27:42.788Z,17.88
2016-12-21T09:28:42.482Z,17.98
2016-12-21T09:29:42.541Z,17.89
2016-12-21T09:30:42.811Z,17.89
2016-12-21T09:31:42.867Z,17.79
2016-12-21T09:32:42.928Z,17.89
2016-12-21T09:33:42.884Z,17.89
2016-12-21T09:34:43.679Z,17.79
2016-12-21T09:35:42.845Z,17.5
2016-12-21T09:36:42.594Z,17.6
2016-12-21T09:37:42.553Z,17.11
2016-12-21T09:38:42.558Z,17.41
2016-12-21T09:39:42.569Z,17.7
2016-12-21T09:40:42.622Z,17.6
2016-12-21T09:41:42.894Z,17.21
2016-12-21T09:42:42.588Z,17.21
2016-12-21T09:43:42.907Z,17.41
2016-12-21T09:44:42.613Z,17.6
2016-12-21T09:45:43.812Z,17.21
2016-12-21T09:46:42.668Z,17.41
2016-12-21T09:47:42.675Z,17.41
2016-12-21T09:48:42.998Z,17.41
2016-12-21T09:49:42.647Z,17.31
2016-12-21T09:50:42.700Z,17.02
2016-12-21T09:51:42.971Z,17.02
2016-12-21T09:52:42.979Z,17.31
2016-12-21T09:53:42.672Z,17.21
2016-12-21T09:54:42.683Z,17.21
2016-12-21T09:55:42.741Z,17.21
2016-12-21T09:56:43.499Z,17.6
2016-12-21T09:57:43.021Z,17.31
2016-12-21T09:58:42.773Z,17.41
2016-12-21T09:59:43.186Z,17.21
2016-12-21T10:00:43.045Z,17.41
2016-12-21T10:01:42.792Z,17.21
2016-12-21T10:02:42.748Z,17.12
2016-12-21T10:03:43.121Z,17.5
2016-12-21T10:04:42.766Z,17.02
2016-12-21T10:05:43.083Z,17.01
2016-12-21T10:06:43.146Z,17.12
2016-12-21T10:07:43.894Z,17.6
2016-12-21T10:08:43.108Z,17.7
2016-12-21T10:09:42.809Z,17.21
2016-12-21T10:10:42.814Z,17.98
2016-12-21T10:11:42.874Z,17.89
2016-12-21T10:12:43.145Z,17.79
2016-12-21T10:13:42.889Z,17.89
2016-12-21T10:14:43.213Z,17.89
2016-12-21T10:15:43.169Z,17.79
2016-12-21T10:16:42.863Z,17.89
2016-12-21T10:17:42.976Z,17.98
2016-12-21T10:18:43.793Z,18.08
2016-12-21T10:19:43.253Z,17.98
2016-12-21T10:20:43.210Z,18.08
2016-12-21T10:21:43.219Z,17.79
2016-12-21T10:22:42.971Z,17.69
2016-12-21T10:23:42.922Z,17.98
2016-12-21T10:24:43.313Z,17.79
2016-12-21T10:25:42.938Z,18.18
2016-12-21T10:26:43.258Z,18.18
2016-12-21T10:27:43.055Z,17.98
2016-12-21T10:28:43.013Z,18.27
2016-12-21T10:29:43.783Z,18.07
2016-12-21T10:30:43.341Z,18.17
2016-12-21T10:31:43.352Z,17.78
2016-12-21T10:32:43.308Z,17.69
2016-12-21T10:33:43.366Z,17.98
2016-12-21T10:34:43.327Z,17.79
2016-12-21T10:35:43.385Z,17.98
2016-12-21T10:36:43.391Z,18.07
2016-12-21T10:37:43.396Z,18.07
2016-12-21T10:38:43.357Z,18.18
2016-12-21T10:39:43.366Z,17.79
2016-12-21T10:40:43.576Z,17.79
2016-12-21T10:41:43.381Z,17.89
2016-12-21T10:42:43.391Z,17.79
2016-12-21T10:43:43.397Z,17.6
2016-12-21T10:44:43.403Z,17.98
2016-12-21T10:45:43.414Z,17.98
2016-12-21T10:46:43.207Z,18.18
2016-12-21T10:47:43.119Z,17.97
2016-12-21T10:48:43.486Z,18.27
2016-12-21T10:49:43.182Z,17.88
2016-12-21T10:50:43.139Z,17.89
2016-12-21T10:51:43.810Z,17.97
2016-12-21T10:52:43.204Z,17.97
2016-12-21T10:53:43.524Z,17.97
2016-12-21T10:54:43.170Z,18.27
2016-12-21T10:55:43.185Z,18.27
2016-12-21T10:56:43.288Z,17.88
2016-12-21T10:57:43.505Z,18.17
2016-12-21T10:58:43.514Z,17.97
2016-12-21T10:59:43.531Z,17.88
2016-12-21T11:00:43.528Z,18.17
2016-12-21T11:01:43.536Z,17.97
2016-12-21T11:02:43.531Z,18.07
2016-12-21T11:03:43.605Z,17.97
2016-12-21T11:04:43.559Z,17.97
2016-12-21T11:05:43.254Z,17.97
2016-12-21T11:06:44.211Z,18.27
2016-12-21T11:07:43.630Z,18.17
2016-12-21T11:08:43.591Z,18.17
2016-12-21T11:09:43.897Z,18.17
2016-12-21T11:10:43.605Z,18.27
2016-12-21T11:11:43.610Z,18.37
2016-12-21T11:12:43.307Z,18.17
2016-12-21T11:13:43.366Z,17.88
2016-12-21T11:14:43.686Z,18.27
2016-12-21T11:15:43.331Z,18.27
2016-12-21T11:16:43.651Z,18.27
2016-12-21T11:17:43.958Z,18.27
2016-12-21T11:18:43.716Z,18.27
2016-12-21T11:19:43.362Z,17.88
2016-12-21T11:20:43.422Z,18.27
2016-12-21T11:21:43.692Z,18.07
2016-12-21T11:22:43.385Z,18.37
2016-12-21T11:23:43.756Z,18.17
2016-12-21T11:24:43.452Z,18.07
2016-12-21T11:25:43.772Z,18.27
2016-12-21T11:26:44.858Z,18.17
2016-12-21T11:27:43.739Z,18.07
2016-12-21T11:28:43.858Z,18.37
2016-12-21T11:29:43.469Z,18.37
2016-12-21T11:30:43.759Z,18.17
2016-12-21T11:31:43.766Z,18.37
2016-12-21T11:32:43.776Z,18.75
2016-12-21T11:33:43.783Z,18.26
2016-12-21T11:34:43.843Z,18.74
2016-12-21T11:35:43.800Z,19.04
2016-12-21T11:36:43.806Z,18.93
2016-12-21T11:37:44.866Z,18.93
2016-12-21T11:38:43.559Z,18.93
2016-12-21T11:39:43.568Z,18.93
2016-12-21T11:40:43.836Z,18.93
2016-12-21T11:41:43.916Z,18.93
2016-12-21T11:42:43.852Z,18.83
2016-12-21T11:43:43.697Z,18.93
2016-12-21T11:44:43.868Z,18.84
2016-12-21T11:45:43.876Z,18.65
2016-12-21T11:46:43.869Z,19.02
2016-12-21T11:47:43.627Z,18.93
2016-12-21T11:48:45.049Z,18.84
2016-12-21T11:49:43.955Z,19.02
2016-12-21T11:50:44.016Z,18.94
2016-12-21T11:51:43.920Z,18.84
2016-12-21T11:52:43.713Z,18.94
2016-12-21T11:53:43.625Z,18.94
2016-12-21T11:54:43.991Z,18.84
2016-12-21T11:55:43.736Z,19.13
2016-12-21T11:56:43.648Z,19.04
2016-12-21T11:57:43.969Z,18.94
2016-12-21T11:58:43.713Z,18.94
2016-12-21T11:59:43.716Z,18.94
2016-12-21T12:00:43.724Z,18.84
2016-12-21T12:01:43.997Z,18.94
2016-12-21T12:02:44.001Z,18.94
2016-12-21T12:03:45.006Z,18.94
2016-12-21T12:04:44.017Z,18.74
2016-12-21T12:05:44.026Z,18.66
2016-12-21T12:06:44.132Z,18.56
2016-12-21T12:07:44.039Z,18.84
2016-12-21T12:08:44.045Z,18.66
2016-12-21T12:09:44.056Z,18.75
2016-12-21T12:10:44.061Z,18.85
2016-12-21T12:11:43.805Z,18.75
2016-12-21T12:12:44.076Z,18.66
2016-12-21T12:13:44.085Z,18.37
2016-12-21T12:14:44.090Z,18.66
2016-12-21T12:15:44.098Z,18.66
2016-12-21T12:16:44.156Z,18.95
2016-12-21T12:17:44.117Z,18.75
2016-12-21T12:18:44.172Z,18.95
2016-12-21T12:19:44.178Z,18.95
2016-12-21T12:20:44.187Z,18.95
2016-12-21T12:21:44.243Z,18.95
2016-12-21T12:22:43.838Z,18.95
2016-12-21T12:23:43.848Z,18.85
2016-12-21T12:24:44.154Z,19.34
2016-12-21T12:25:45.016Z,19.43
2016-12-21T12:26:43.922Z,19.43
2016-12-21T12:27:44.188Z,19.53
2016-12-21T12:28:44.198Z,19.43
2016-12-21T12:29:44.205Z,19.14
2016-12-21T12:30:44.216Z,19.14
2016-12-21T12:31:43.979Z,18.66
2016-12-21T12:32:43.916Z,19.24
2016-12-21T12:33:43.924Z,19.14
2016-12-21T12:34:44.131Z,19.71
2016-12-21T12:35:44.302Z,19.32
2016-12-21T12:36:44.002Z,19.14
2016-12-21T12:37:43.954Z,19.24
2016-12-21T12:38:44.278Z,19.14
2016-12-21T12:39:44.282Z,19.34
2016-12-21T12:40:44.342Z,19.24
2016-12-21T12:41:44.296Z,19.24
2016-12-21T12:42:43.987Z,19.04
2016-12-21T12:43:44.315Z,19.04
2016-12-21T12:44:44.370Z,19.04
2016-12-21T12:45:44.329Z,19.14
2016-12-21T12:46:44.333Z,19.14
2016-12-21T12:47:45.079Z,19.14
2016-12-21T12:48:44.034Z,19.14
2016-12-21T12:49:44.357Z,19.04
2016-12-21T12:50:44.362Z,19.04
2016-12-21T12:51:44.060Z,19.63
2016-12-21T12:52:44.427Z,19.32
2016-12-21T12:53:44.387Z,19.92
2016-12-21T12:54:44.394Z,19.81
2016-12-21T12:55:44.456Z,19.62
2016-12-21T12:56:44.459Z,19.63
2016-12-21T12:57:44.108Z,19.52
2016-12-21T12:58:45.226Z,20.01